Terminal Aerodrome Forecast
Issued by NWS Grand Forks, ND

Home | Current Version | Previous Version | Graphics & Text | Print | Product List | Glossary On
Versions: 1 2 3 4 5 6 7 8 9 10 11 12 13 14 15 16 17 18
941
FTUS43 KFGF 271120
TAFFAR
TAF
KFAR 271120Z 2712/2812 31009KT P6SM SKC
     FM271500 33013KT P6SM SKC
     FM281100 VRB03KT P6SM FEW120=

USA.gov is the U.S. government's official web portal to all federal, state and local government web resources and services.